createdAt,value
2023-01-10T00:00:57.051Z,88.00
2023-01-10T00:02:03.905Z,83.60
2023-01-10T00:03:10.031Z,81.20
2023-01-10T00:04:12.963Z,88.30
2023-01-10T00:05:16.334Z,85.90
2023-01-10T00:06:19.355Z,90.70
2023-01-10T00:07:22.221Z,81.20
2023-01-10T00:08:25.024Z,83.30
2023-01-10T00:09:27.930Z,90.70
2023-01-10T00:10:31.853Z,83.20
2023-01-10T00:11:53.744Z,87.50
2023-01-10T00:13:15.531Z,85.70
2023-01-10T00:14:18.373Z,89.70
2023-01-10T00:15:21.943Z,86.50
2023-01-10T00:16:24.850Z,88.80
2023-01-10T00:17:27.758Z,84.20
2023-01-10T00:18:30.779Z,95.00
2023-01-10T00:19:33.659Z,86.70
2023-01-10T00:20:36.703Z,87.70
2023-01-10T00:21:39.897Z,88.80
2023-01-10T00:22:43.163Z,91.20
2023-01-10T00:23:46.138Z,96.60
2023-01-10T00:24:49.027Z,89.40
2023-01-10T00:25:51.902Z,94.00
2023-01-10T00:26:54.915Z,85.80
2023-01-10T00:28:16.277Z,89.90
2023-01-10T00:29:28.203Z,83.70
2023-01-10T00:30:31.779Z,85.30
2023-01-10T00:31:34.748Z,93.90
2023-01-10T00:32:37.749Z,92.00
2023-01-10T00:33:40.682Z,92.30
2023-01-10T00:34:43.551Z,94.00
2023-01-10T00:35:48.160Z,91.90
2023-01-10T00:36:51.059Z,94.30
2023-01-10T00:37:57.958Z,92.40
2023-01-10T00:39:00.927Z,99.40
2023-01-10T00:40:07.875Z,88.50
2023-01-10T00:41:30.810Z,99.30
2023-01-10T00:42:52.412Z,89.30
2023-01-10T00:43:58.083Z,101.90
2023-01-10T00:45:01.293Z,95.80
2023-01-10T00:46:04.376Z,95.70
2023-01-10T00:47:07.484Z,96.30
2023-01-10T00:48:10.342Z,93.40
2023-01-10T00:49:16.352Z,92.70
2023-01-10T00:50:19.363Z,95.90
2023-01-10T00:51:22.312Z,94.50
2023-01-10T00:52:25.179Z,92.90
2023-01-10T00:53:28.079Z,97.30
2023-01-10T00:54:31.103Z,88.80
2023-01-10T00:55:35.049Z,89.40
2023-01-10T00:56:37.937Z,93.30
2023-01-10T00:57:40.788Z,89.10
2023-01-10T00:58:44.952Z,93.60
2023-01-10T00:59:47.899Z,97.40
2023-01-10T01:00:50.926Z,93.00
2023-01-10T01:01:54.044Z,90.70
2023-01-10T01:02:57.381Z,90.10
2023-01-10T01:04:00.399Z,89.50
2023-01-10T01:05:04.645Z,88.00
2023-01-10T01:06:08.441Z,90.70
2023-01-10T01:07:11.331Z,88.70
2023-01-10T01:08:15.995Z,91.20
2023-01-10T01:09:19.076Z,89.20
2023-01-10T01:10:27.653Z,88.90
2023-01-10T01:11:30.955Z,86.80
2023-01-10T01:12:33.820Z,89.10
2023-01-10T01:13:36.789Z,87.20
2023-01-10T01:14:39.648Z,89.00
2023-01-10T01:15:42.567Z,80.60
2023-01-10T01:16:45.506Z,83.10
2023-01-10T01:17:48.847Z,85.80
2023-01-10T01:18:51.781Z,85.40
2023-01-10T01:19:54.751Z,90.40
2023-01-10T01:21:01.011Z,83.80
2023-01-10T01:22:03.883Z,88.70
2023-01-10T01:23:06.793Z,89.10
2023-01-10T01:24:10.837Z,87.80
2023-01-10T01:25:13.783Z,88.00
2023-01-10T01:26:16.623Z,87.20
2023-01-10T01:27:21.088Z,92.20
2023-01-10T01:28:24.931Z,95.00
2023-01-10T01:29:38.538Z,94.80
2023-01-10T01:30:45.957Z,90.40
2023-01-10T01:31:49.591Z,94.60
2023-01-10T01:32:52.686Z,95.50
2023-01-10T01:33:55.599Z,89.40
2023-01-10T01:34:58.461Z,85.60
2023-01-10T01:36:01.376Z,92.80
2023-01-10T01:37:04.234Z,92.40
2023-01-10T01:38:07.117Z,96.50
2023-01-10T01:39:10.060Z,95.90
2023-01-10T01:40:15.353Z,97.90
2023-01-10T01:41:36.761Z,92.00
2023-01-10T01:42:39.825Z,90.50
2023-01-10T01:44:01.025Z,96.60
2023-01-10T01:45:10.258Z,96.70
2023-01-10T01:46:13.239Z,91.30
2023-01-10T01:47:26.859Z,95.80
2023-01-10T01:48:36.883Z,97.90
2023-01-10T01:49:43.854Z,90.10
2023-01-10T01:51:16.077Z,91.80
2023-01-10T01:52:25.713Z,88.60
2023-01-10T01:53:40.523Z,97.80
2023-01-10T01:54:43.862Z,89.40
2023-01-10T01:55:48.248Z,93.10
2023-01-10T01:57:00.804Z,88.10
2023-01-10T01:58:09.589Z,91.30
2023-01-10T01:59:26.373Z,88.00
2023-01-10T02:00:29.319Z,91.60
2023-01-10T02:01:34.049Z,87.00
2023-01-10T02:02:51.140Z,84.30
2023-01-10T02:04:13.698Z,83.10
2023-01-10T02:05:18.970Z,88.30
2023-01-10T02:06:24.897Z,89.90
2023-01-10T02:07:31.806Z,92.90
2023-01-10T02:08:35.382Z,81.20
2023-01-10T02:09:45.819Z,84.30
2023-01-10T02:10:55.458Z,81.70
2023-01-10T02:11:58.320Z,84.40
2023-01-10T02:13:05.054Z,88.60
2023-01-10T02:14:10.108Z,87.70
2023-01-10T02:15:16.393Z,83.50
2023-01-10T02:16:19.457Z,82.90
2023-01-10T02:17:22.346Z,84.20
2023-01-10T02:18:25.335Z,90.30
2023-01-10T02:19:48.421Z,85.30
2023-01-10T02:21:36.102Z,90.70
2023-01-10T02:22:42.352Z,81.00
2023-01-10T02:24:16.427Z,87.70
2023-01-10T02:25:43.776Z,81.40
2023-01-10T02:26:55.738Z,74.50
2023-01-10T02:28:23.665Z,77.90
2023-01-10T02:30:15.801Z,79.50
2023-01-10T02:31:30.702Z,77.90
2023-01-10T02:32:45.756Z,76.10
2023-01-10T02:35:04.738Z,77.60
2023-01-10T02:36:26.306Z,75.80
2023-01-10T02:37:38.339Z,77.50
2023-01-10T02:38:47.813Z,81.50
2023-01-10T02:41:22.590Z,76.20
2023-01-10T02:42:48.333Z,80.50
2023-01-10T02:43:57.645Z,77.00
2023-01-10T02:45:09.481Z,73.40
2023-01-10T02:46:25.548Z,75.40
2023-01-10T02:47:36.138Z,77.30
2023-01-10T02:48:39.012Z,79.20
2023-01-10T02:49:47.252Z,80.70
2023-01-10T02:50:57.277Z,78.10
2023-01-10T02:52:00.197Z,78.60
2023-01-10T02:53:18.929Z,79.80
2023-01-10T02:54:30.864Z,74.10
2023-01-10T02:56:01.925Z,77.90
2023-01-10T02:57:35.931Z,77.60
2023-01-10T02:58:56.769Z,78.80
2023-01-10T03:00:24.692Z,80.30
2023-01-10T03:01:49.601Z,78.90
2023-01-10T03:03:15.097Z,75.10
2023-01-10T03:04:31.136Z,79.30
2023-01-10T03:05:55.629Z,74.90
2023-01-10T03:07:25.186Z,78.40
2023-01-10T03:08:43.985Z,76.50
2023-01-10T03:10:07.767Z,75.40
2023-01-10T03:11:11.869Z,80.00
2023-01-10T03:12:27.214Z,83.70
2023-01-10T03:13:58.135Z,78.30
2023-01-10T03:15:04.737Z,84.10
2023-01-10T03:16:20.156Z,82.20
2023-01-10T03:17:26.226Z,79.20
2023-01-10T03:18:54.405Z,79.80
2023-01-10T03:20:02.332Z,83.60
2023-01-10T03:21:08.127Z,82.90
2023-01-10T03:22:11.942Z,76.90
2023-01-10T03:23:17.235Z,83.80
2023-01-10T03:24:33.904Z,82.20
2023-01-10T03:25:38.824Z,82.50
2023-01-10T03:27:04.046Z,81.90
2023-01-10T03:28:13.162Z,79.00
2023-01-10T03:29:22.091Z,82.70
2023-01-10T03:30:35.887Z,83.20
2023-01-10T03:32:06.577Z,82.00
2023-01-10T03:33:11.859Z,82.40
2023-01-10T03:34:14.926Z,83.10
2023-01-10T03:35:21.180Z,84.90
2023-01-10T03:36:53.740Z,82.90
2023-01-10T03:38:04.033Z,90.70
2023-01-10T03:39:20.030Z,92.70
2023-01-10T03:40:42.365Z,89.10
2023-01-10T03:41:59.372Z,80.30
2023-01-10T03:44:05.689Z,88.70
2023-01-10T03:45:13.611Z,85.50
2023-01-10T03:46:27.760Z,89.90
2023-01-10T03:47:45.478Z,89.70
2023-01-10T03:48:49.506Z,89.70
2023-01-10T03:50:01.094Z,89.80
2023-01-10T03:51:06.564Z,87.70
2023-01-10T03:52:13.748Z,89.00
2023-01-10T03:53:17.507Z,87.70
2023-01-10T03:54:20.404Z,90.30
2023-01-10T03:55:27.398Z,86.90
2023-01-10T03:56:30.294Z,90.10
2023-01-10T03:57:33.479Z,87.80
2023-01-10T03:58:36.372Z,93.20
2023-01-10T03:59:39.303Z,89.00
2023-01-10T04:00:42.216Z,88.50
2023-01-10T04:01:45.215Z,85.40
2023-01-10T04:02:48.264Z,88.30
2023-01-10T04:03:51.344Z,89.70
2023-01-10T04:04:54.314Z,83.70
2023-01-10T04:05:57.236Z,91.10
2023-01-10T04:07:00.318Z,83.30
2023-01-10T04:08:03.253Z,85.10
2023-01-10T04:09:06.138Z,82.70
2023-01-10T04:10:10.282Z,86.90
2023-01-10T04:11:13.187Z,81.00
2023-01-10T04:12:16.113Z,84.80
2023-01-10T04:13:18.952Z,82.90
2023-01-10T04:14:21.931Z,82.00
2023-01-10T04:15:24.746Z,81.50
2023-01-10T04:16:27.867Z,81.20
2023-01-10T04:17:30.806Z,85.10
2023-01-10T04:18:33.976Z,79.20
2023-01-10T04:19:36.880Z,80.70
2023-01-10T04:20:39.775Z,79.90
2023-01-10T04:21:42.623Z,78.00
2023-01-10T04:22:46.004Z,76.30
2023-01-10T04:23:48.899Z,78.30
2023-01-10T04:24:52.272Z,78.00
2023-01-10T04:26:04.785Z,76.80
2023-01-10T04:27:07.983Z,75.20
2023-01-10T04:28:10.820Z,81.00
2023-01-10T04:29:13.741Z,79.00
2023-01-10T04:30:32.615Z,80.20
2023-01-10T04:31:35.750Z,81.00
2023-01-10T04:32:39.044Z,83.10
2023-01-10T04:33:42.003Z,80.70
2023-01-10T04:34:45.456Z,82.00
2023-01-10T04:35:52.342Z,74.00
2023-01-10T04:36:55.302Z,76.90
2023-01-10T04:37:58.205Z,79.80
2023-01-10T04:39:01.201Z,76.80
2023-01-10T04:40:04.877Z,77.40
2023-01-10T04:41:07.808Z,73.80
2023-01-10T04:42:10.665Z,74.00
2023-01-10T04:43:13.690Z,73.30
2023-01-10T04:44:16.571Z,76.20
2023-01-10T04:45:20.562Z,82.20
2023-01-10T04:46:23.435Z,71.50
2023-01-10T04:47:26.338Z,73.30
2023-01-10T04:48:29.245Z,77.20
2023-01-10T04:49:32.131Z,73.60
2023-01-10T04:50:35.057Z,71.20
2023-01-10T04:51:38.179Z,74.30
2023-01-10T04:52:41.289Z,75.90
2023-01-10T04:53:44.162Z,70.60
2023-01-10T04:54:47.047Z,70.40
2023-01-10T04:55:50.069Z,72.70
2023-01-10T04:56:53.128Z,69.50
2023-01-10T04:57:56.009Z,72.60
2023-01-10T04:58:58.955Z,71.90
2023-01-10T05:00:01.852Z,69.30
2023-01-10T05:01:27.280Z,74.50
2023-01-10T05:02:30.434Z,73.40
2023-01-10T05:03:33.401Z,73.60
2023-01-10T05:04:36.297Z,76.20
2023-01-10T05:05:39.422Z,73.10
2023-01-10T05:07:11.629Z,74.40
2023-01-10T05:08:14.613Z,71.70
2023-01-10T05:09:17.691Z,72.60
2023-01-10T05:10:21.046Z,69.00
2023-01-10T05:11:24.150Z,72.00
2023-01-10T05:12:26.983Z,70.90
2023-01-10T05:13:29.812Z,69.10
2023-01-10T05:14:33.037Z,68.60
2023-01-10T05:15:35.843Z,67.90
2023-01-10T05:16:38.917Z,74.80
2023-01-10T05:17:41.947Z,72.60
2023-01-10T05:18:45.475Z,73.20
2023-01-10T05:19:48.349Z,72.10
2023-01-10T05:20:51.584Z,66.60
2023-01-10T05:21:54.448Z,73.90
2023-01-10T05:22:57.360Z,70.00
2023-01-10T05:24:00.233Z,69.60
2023-01-10T05:25:03.184Z,73.10
2023-01-10T05:26:13.221Z,70.30
2023-01-10T05:27:16.703Z,68.10
2023-01-10T05:28:19.560Z,74.20
2023-01-10T05:29:22.469Z,69.60
2023-01-10T05:30:25.530Z,75.50
2023-01-10T05:31:28.540Z,67.40
2023-01-10T05:32:31.436Z,70.00
2023-01-10T05:33:34.817Z,65.10
2023-01-10T05:34:37.780Z,73.40
2023-01-10T05:35:40.776Z,74.70
2023-01-10T05:36:43.599Z,76.00
2023-01-10T05:37:46.461Z,75.20
2023-01-10T05:38:49.277Z,72.10
2023-01-10T05:39:52.178Z,73.10
2023-01-10T05:40:58.921Z,70.70
2023-01-10T05:42:01.944Z,73.70
2023-01-10T05:43:04.842Z,73.40
2023-01-10T05:44:08.109Z,70.80
2023-01-10T05:45:11.412Z,70.60
2023-01-10T05:46:14.342Z,68.90
2023-01-10T05:47:17.199Z,66.80
2023-01-10T05:48:20.263Z,69.30
2023-01-10T05:49:23.084Z,67.30
2023-01-10T05:50:26.007Z,66.60
2023-01-10T05:51:28.864Z,66.80
2023-01-10T05:52:31.805Z,66.30
2023-01-10T05:53:34.716Z,64.70
2023-01-10T05:54:37.641Z,65.90
2023-01-10T05:55:40.810Z,62.70
2023-01-10T05:56:43.649Z,69.90
2023-01-10T05:57:46.601Z,65.20
2023-01-10T05:58:54.017Z,67.80
2023-01-10T06:00:00.182Z,66.10
2023-01-10T06:01:03.251Z,63.30
2023-01-10T06:02:06.210Z,65.40
2023-01-10T06:03:09.115Z,64.60
2023-01-10T06:04:12.008Z,63.50
2023-01-10T06:05:14.988Z,66.80
2023-01-10T06:06:17.880Z,67.30
2023-01-10T06:07:21.268Z,67.70
2023-01-10T06:08:24.940Z,71.30
2023-01-10T06:09:27.836Z,63.80
2023-01-10T06:10:30.758Z,65.30
2023-01-10T06:11:36.593Z,63.90
2023-01-10T06:12:40.389Z,65.70
2023-01-10T06:13:43.252Z,63.40
2023-01-10T06:14:46.272Z,63.50
2023-01-10T06:15:52.520Z,71.70
2023-01-10T06:16:55.772Z,63.60
2023-01-10T06:17:58.729Z,64.80
2023-01-10T06:19:01.700Z,69.10
2023-01-10T06:20:05.081Z,64.20
2023-01-10T06:21:07.973Z,63.10
2023-01-10T06:22:10.944Z,65.40
2023-01-10T06:23:13.908Z,61.50
2023-01-10T06:24:16.805Z,62.30
2023-01-10T06:25:19.685Z,62.50
2023-01-10T06:26:22.565Z,60.50
2023-01-10T06:27:25.540Z,60.00
2023-01-10T06:28:28.468Z,64.60
2023-01-10T06:29:31.553Z,60.60
2023-01-10T06:30:35.477Z,60.40
2023-01-10T06:31:38.384Z,60.50
2023-01-10T06:32:42.634Z,62.20
2023-01-10T06:33:45.629Z,57.60
2023-01-10T06:34:48.415Z,61.70
2023-01-10T06:35:51.589Z,60.20
2023-01-10T06:36:54.828Z,59.70
2023-01-10T06:37:58.766Z,58.80
2023-01-10T06:39:02.185Z,61.00
2023-01-10T06:40:06.475Z,54.30
2023-01-10T06:41:15.662Z,55.80
2023-01-10T06:42:18.547Z,53.60
2023-01-10T06:43:21.455Z,58.20
2023-01-10T06:44:24.342Z,55.30
2023-01-10T06:45:27.279Z,54.40
2023-01-10T06:46:30.218Z,57.40
2023-01-10T06:47:33.072Z,55.30
2023-01-10T06:48:36.950Z,53.20
2023-01-10T06:49:39.900Z,56.80
2023-01-10T06:50:42.789Z,59.90
2023-01-10T06:51:45.658Z,58.10
2023-01-10T06:53:02.993Z,55.10
2023-01-10T06:54:06.046Z,54.40
2023-01-10T06:55:09.268Z,58.80
2023-01-10T06:56:12.329Z,53.20
2023-01-10T06:57:15.727Z,54.70
2023-01-10T06:58:18.737Z,59.80
2023-01-10T06:59:21.669Z,56.20
2023-01-10T07:00:25.744Z,60.20
2023-01-10T07:01:28.763Z,54.60
2023-01-10T07:02:31.978Z,56.20
2023-01-10T07:03:34.996Z,60.40
2023-01-10T07:04:37.882Z,59.50
2023-01-10T07:05:40.824Z,58.30
2023-01-10T07:06:43.878Z,58.40
2023-01-10T07:07:46.928Z,57.30
2023-01-10T07:08:49.760Z,57.20
2023-01-10T07:09:52.621Z,58.70
2023-01-10T07:10:59.103Z,58.10
2023-01-10T07:12:02.101Z,54.90
2023-01-10T07:13:05.012Z,52.30
2023-01-10T07:14:09.830Z,55.00
2023-01-10T07:15:12.812Z,51.80
2023-01-10T07:16:16.562Z,60.70
2023-01-10T07:17:19.749Z,53.90
2023-01-10T07:18:22.626Z,56.40
2023-01-10T07:19:25.506Z,54.80
2023-01-10T07:20:28.759Z,52.90
2023-01-10T07:21:31.685Z,53.80
2023-01-10T07:22:34.520Z,52.40
2023-01-10T07:23:38.338Z,55.30
2023-01-10T07:24:41.225Z,55.00
2023-01-10T07:25:44.570Z,53.70
2023-01-10T07:26:47.456Z,53.50
2023-01-10T07:27:50.807Z,52.70
2023-01-10T07:28:54.217Z,52.10
2023-01-10T07:29:57.119Z,54.30
2023-01-10T07:31:01.940Z,55.30
2023-01-10T07:32:05.502Z,51.70
2023-01-10T07:33:08.398Z,58.00
2023-01-10T07:34:11.443Z,56.40
2023-01-10T07:35:14.361Z,54.00
2023-01-10T07:36:17.359Z,52.90
2023-01-10T07:37:20.728Z,53.80
2023-01-10T07:38:23.649Z,53.40
2023-01-10T07:39:26.517Z,54.80
2023-01-10T07:40:29.894Z,51.40
2023-01-10T07:41:32.839Z,55.90
2023-01-10T07:42:35.844Z,52.60
2023-01-10T07:43:39.359Z,54.10
2023-01-10T07:44:42.225Z,51.70
2023-01-10T07:45:45.301Z,52.00
2023-01-10T07:46:48.196Z,51.20
2023-01-10T07:47:51.463Z,54.00
2023-01-10T07:48:54.323Z,51.40
2023-01-10T07:49:57.185Z,55.70
2023-01-10T07:51:01.362Z,51.30
2023-01-10T07:52:05.234Z,50.30
2023-01-10T07:53:08.752Z,53.10
2023-01-10T07:54:13.598Z,49.50
2023-01-10T07:55:18.047Z,45.30
2023-01-10T07:56:21.141Z,50.50
2023-01-10T07:57:24.111Z,50.10
2023-01-10T07:58:27.586Z,48.40
2023-01-10T07:59:30.460Z,49.60
2023-01-10T08:00:34.941Z,48.00
2023-01-10T08:01:37.804Z,53.30
2023-01-10T08:02:40.815Z,49.70
2023-01-10T08:03:43.867Z,49.80
2023-01-10T08:04:46.790Z,52.90
2023-01-10T08:05:49.614Z,51.70
2023-01-10T08:06:55.001Z,52.40
2023-01-10T08:08:00.296Z,45.50
2023-01-10T08:09:05.358Z,51.30
2023-01-10T08:10:08.841Z,49.10
2023-01-10T08:11:11.735Z,44.90
2023-01-10T08:12:14.659Z,52.70
2023-01-10T08:13:19.201Z,52.70
2023-01-10T08:14:22.920Z,50.20
2023-01-10T08:15:25.907Z,49.00
2023-01-10T08:16:28.781Z,45.50
2023-01-10T08:17:35.700Z,47.20
2023-01-10T08:18:42.489Z,51.20
2023-01-10T08:19:45.825Z,49.60
2023-01-10T08:20:50.621Z,46.40
2023-01-10T08:21:55.125Z,45.50
2023-01-10T08:22:59.628Z,47.80
2023-01-10T08:24:02.534Z,43.50
2023-01-10T08:25:05.683Z,46.50
2023-01-10T08:26:08.614Z,43.40
2023-01-10T08:27:11.610Z,47.30
2023-01-10T08:28:15.051Z,46.00
2023-01-10T08:29:18.081Z,50.80
2023-01-10T08:30:22.454Z,42.30
2023-01-10T08:31:25.540Z,45.60
2023-01-10T08:32:28.555Z,48.00
2023-01-10T08:33:31.535Z,49.80
2023-01-10T08:34:34.611Z,48.40
2023-01-10T08:35:42.584Z,49.60
2023-01-10T08:36:46.809Z,48.80
2023-01-10T08:37:50.278Z,47.90
2023-01-10T08:38:55.423Z,46.70
2023-01-10T08:39:58.561Z,48.90
2023-01-10T08:41:01.492Z,49.40
2023-01-10T08:42:04.493Z,50.40
2023-01-10T08:43:11.742Z,44.60
2023-01-10T08:44:15.872Z,49.80
2023-01-10T08:45:18.954Z,44.50
2023-01-10T08:46:22.121Z,45.90
2023-01-10T08:47:25.378Z,45.80
2023-01-10T08:48:28.373Z,46.20
2023-01-10T08:49:31.477Z,47.80
2023-01-10T08:50:35.031Z,50.30
2023-01-10T08:51:38.753Z,43.30
2023-01-10T08:52:41.900Z,45.30
2023-01-10T08:53:44.875Z,45.80
2023-01-10T08:54:48.223Z,47.10
2023-01-10T08:55:51.210Z,50.00
2023-01-10T08:56:54.332Z,45.50
2023-01-10T08:58:00.967Z,46.30
2023-01-10T08:59:03.935Z,41.40
2023-01-10T09:00:07.483Z,41.60
2023-01-10T09:01:12.132Z,46.10
2023-01-10T09:02:15.222Z,44.00
2023-01-10T09:03:19.812Z,47.10
2023-01-10T09:04:22.920Z,43.50
2023-01-10T09:05:27.741Z,42.10
2023-01-10T09:06:31.245Z,44.00
2023-01-10T09:07:34.190Z,47.80
2023-01-10T09:08:38.232Z,46.90
2023-01-10T09:09:41.487Z,43.90
2023-01-10T09:10:44.606Z,45.70
2023-01-10T09:11:47.521Z,43.50
2023-01-10T09:12:56.736Z,45.90
2023-01-10T09:13:59.674Z,45.70
2023-01-10T09:15:03.038Z,48.00
2023-01-10T09:16:06.559Z,43.50
2023-01-10T09:17:09.794Z,43.30
2023-01-10T09:18:14.652Z,46.30
2023-01-10T09:19:18.334Z,40.80
2023-01-10T09:20:21.282Z,43.90
2023-01-10T09:21:24.861Z,43.20
2023-01-10T09:22:27.763Z,41.90
2023-01-10T09:23:30.679Z,42.10
2023-01-10T09:24:33.515Z,44.00
2023-01-10T09:25:36.875Z,47.30
2023-01-10T09:26:39.806Z,45.00
2023-01-10T09:27:42.709Z,44.40
2023-01-10T09:28:48.051Z,43.10
2023-01-10T09:29:52.050Z,43.70
2023-01-10T09:30:55.097Z,43.70
2023-01-10T09:31:57.951Z,43.80
2023-01-10T09:33:01.533Z,46.80
2023-01-10T09:34:04.370Z,45.20
2023-01-10T09:35:07.638Z,43.70
2023-01-10T09:36:13.713Z,42.50
2023-01-10T09:37:16.974Z,44.90
2023-01-10T09:38:20.068Z,44.70
2023-01-10T09:39:23.021Z,42.50
2023-01-10T09:40:52.378Z,46.30
2023-01-10T09:42:05.996Z,46.30
2023-01-10T09:43:28.519Z,42.50
2023-01-10T09:44:59.639Z,47.20
2023-01-10T09:46:10.285Z,42.80
2023-01-10T09:47:30.056Z,43.30
2023-01-10T09:49:14.263Z,42.00
2023-01-10T09:50:45.294Z,43.50
2023-01-10T09:51:50.947Z,42.10
2023-01-10T09:52:59.519Z,44.40
2023-01-10T09:54:12.171Z,46.70
2023-01-10T09:55:32.845Z,46.60
2023-01-10T09:56:36.547Z,45.00
2023-01-10T09:57:39.502Z,47.00
2023-01-10T09:58:44.190Z,42.30
2023-01-10T09:59:51.907Z,43.20
2023-01-10T10:00:58.746Z,48.20
2023-01-10T10:02:17.329Z,40.10
2023-01-10T10:03:26.166Z,45.70
2023-01-10T10:04:35.478Z,45.10
2023-01-10T10:05:38.456Z,51.60
2023-01-10T10:06:41.497Z,51.10
2023-01-10T10:07:45.450Z,47.80
2023-01-10T10:08:48.523Z,48.10
2023-01-10T10:09:51.476Z,50.90
2023-01-10T10:11:16.508Z,49.90
2023-01-10T10:12:43.791Z,53.90
2023-01-10T10:13:46.738Z,44.50
2023-01-10T10:14:52.211Z,47.80
2023-01-10T10:16:07.252Z,48.60
2023-01-10T10:17:31.187Z,46.30
2023-01-10T10:19:02.520Z,44.20
2023-01-10T10:20:31.941Z,47.40
2023-01-10T10:22:08.116Z,45.10
2023-01-10T10:23:45.506Z,45.50
2023-01-10T10:24:55.967Z,42.10
2023-01-10T10:26:32.698Z,42.90
2023-01-10T10:27:49.287Z,39.50
2023-01-10T10:29:24.093Z,43.10
2023-01-10T10:30:44.413Z,43.00
2023-01-10T10:32:12.041Z,45.90
2023-01-10T10:33:50.151Z,48.00
2023-01-10T10:34:59.054Z,44.10
2023-01-10T10:36:24.620Z,40.80
2023-01-10T10:37:41.722Z,43.40
2023-01-10T10:38:48.682Z,42.40
2023-01-10T10:39:57.307Z,41.90
2023-01-10T10:41:01.510Z,44.40
2023-01-10T10:42:11.075Z,44.00
2023-01-10T10:43:22.000Z,40.70
2023-01-10T10:44:38.796Z,45.50
2023-01-10T10:45:51.553Z,42.70
2023-01-10T10:46:57.039Z,43.00
2023-01-10T10:48:11.929Z,39.80
2023-01-10T10:49:24.104Z,41.30
2023-01-10T10:50:35.722Z,43.70
2023-01-10T10:51:49.801Z,42.90
2023-01-10T10:52:52.871Z,39.80
2023-01-10T10:53:57.264Z,39.50
2023-01-10T10:55:01.368Z,46.80
2023-01-10T10:56:09.646Z,43.50
2023-01-10T10:57:13.240Z,39.50
2023-01-10T10:58:18.042Z,40.30
2023-01-10T10:59:22.103Z,38.20
2023-01-10T11:00:27.070Z,38.30
2023-01-10T11:01:30.130Z,40.80
2023-01-10T11:02:40.951Z,41.50
2023-01-10T11:03:58.496Z,40.10
2023-01-10T11:05:05.320Z,42.80
2023-01-10T11:06:10.172Z,44.00
2023-01-10T11:07:17.966Z,41.60
2023-01-10T11:08:23.027Z,40.30
2023-01-10T11:09:37.197Z,41.10
2023-01-10T11:10:42.605Z,41.80
2023-01-10T11:11:50.436Z,41.70
2023-01-10T11:12:53.392Z,39.50
2023-01-10T11:13:58.784Z,41.50
2023-01-10T11:15:01.818Z,45.70
2023-01-10T11:16:06.276Z,43.40
2023-01-10T11:17:28.067Z,41.90
2023-01-10T11:18:31.908Z,41.20
2023-01-10T11:19:34.797Z,44.50
2023-01-10T11:20:38.369Z,38.70
2023-01-10T11:21:42.108Z,37.50
2023-01-10T11:22:51.497Z,40.50
2023-01-10T11:23:54.576Z,39.10
2023-01-10T11:25:02.714Z,41.00
2023-01-10T11:26:08.800Z,38.90
2023-01-10T11:27:36.123Z,39.30
2023-01-10T11:28:39.310Z,38.30
2023-01-10T11:29:56.631Z,40.10
2023-01-10T11:31:01.033Z,39.90
2023-01-10T11:32:15.173Z,38.10
2023-01-10T11:33:23.223Z,38.30
2023-01-10T11:34:31.709Z,39.80
2023-01-10T11:35:41.447Z,35.60
2023-01-10T11:36:56.582Z,37.90
2023-01-10T11:38:03.396Z,39.00
2023-01-10T11:39:06.286Z,38.30
2023-01-10T11:40:25.874Z,40.80
2023-01-10T11:41:34.459Z,36.10
2023-01-10T11:42:37.470Z,38.00
2023-01-10T11:43:41.357Z,38.00
2023-01-10T11:44:44.265Z,38.40
2023-01-10T11:45:55.001Z,37.10
2023-01-10T11:47:03.867Z,37.40
2023-01-10T11:48:21.401Z,38.60
2023-01-10T11:49:35.253Z,36.50
2023-01-10T11:50:42.473Z,36.80
2023-01-10T11:51:48.716Z,39.30
2023-01-10T11:52:53.280Z,40.40
2023-01-10T11:54:02.711Z,37.30
2023-01-10T11:55:08.111Z,41.70
2023-01-10T11:56:22.439Z,37.60
2023-01-10T11:57:28.775Z,38.10
2023-01-10T11:58:34.616Z,37.00
2023-01-10T11:59:39.227Z,41.90
2023-01-10T12:00:51.308Z,40.50
2023-01-10T12:02:05.230Z,38.20
2023-01-10T12:03:23.982Z,40.60
2023-01-10T12:04:31.660Z,37.10
2023-01-10T12:05:34.839Z,36.90
2023-01-10T12:06:45.233Z,38.10
2023-01-10T12:07:56.306Z,39.40
2023-01-10T12:09:00.405Z,36.90
2023-01-10T12:10:04.193Z,35.70
2023-01-10T12:11:31.625Z,33.90
2023-01-10T12:12:36.336Z,36.00
2023-01-10T12:13:54.935Z,39.60
2023-01-10T12:15:00.180Z,38.50
2023-01-10T12:16:26.462Z,34.90
2023-01-10T12:17:35.815Z,35.90
2023-01-10T12:18:38.725Z,34.80
2023-01-10T12:19:41.607Z,31.80
2023-01-10T12:20:51.373Z,34.40
2023-01-10T12:23:08.097Z,34.00
2023-01-10T12:24:29.246Z,33.30
2023-01-10T12:25:37.936Z,35.40
2023-01-10T12:26:42.280Z,34.10
2023-01-10T12:27:49.069Z,34.70
2023-01-10T12:29:00.007Z,34.80
2023-01-10T12:30:20.005Z,34.40
2023-01-10T12:31:24.016Z,38.30
2023-01-10T12:32:34.248Z,37.70
2023-01-10T12:33:51.933Z,33.50
2023-01-10T12:35:03.917Z,37.40
2023-01-10T12:36:31.506Z,37.10
2023-01-10T12:37:45.885Z,35.80
2023-01-10T12:39:05.464Z,36.00
2023-01-10T12:40:16.286Z,34.10
2023-01-10T12:41:54.153Z,39.90
2023-01-10T12:43:26.224Z,36.30
2023-01-10T12:44:37.844Z,37.90
2023-01-10T12:45:49.338Z,36.90
2023-01-10T12:47:09.865Z,33.70
2023-01-10T12:48:22.598Z,36.10
2023-01-10T12:50:07.337Z,32.90
2023-01-10T12:51:18.807Z,34.60
2023-01-10T12:52:45.849Z,38.70
2023-01-10T12:53:55.623Z,31.00
2023-01-10T12:56:07.837Z,35.50
2023-01-10T12:57:39.551Z,34.80
2023-01-10T12:59:05.203Z,34.90
2023-01-10T13:00:29.543Z,34.60
2023-01-10T13:01:40.559Z,35.60
2023-01-10T13:02:47.088Z,32.30
2023-01-10T13:04:14.028Z,34.60
2023-01-10T13:05:21.818Z,35.90
2023-01-10T13:06:37.650Z,33.80
2023-01-10T13:07:41.081Z,34.30
2023-01-10T13:08:44.275Z,33.70
2023-01-10T13:09:48.534Z,35.10
2023-01-10T13:10:55.894Z,36.30
2023-01-10T13:12:36.658Z,34.30
2023-01-10T13:13:44.088Z,32.70
2023-01-10T13:14:46.887Z,31.70
2023-01-10T13:16:00.313Z,34.50
2023-01-10T13:17:24.762Z,34.60
2023-01-10T13:18:30.453Z,33.30
2023-01-10T13:19:33.363Z,35.00
2023-01-10T13:20:41.616Z,33.00
2023-01-10T13:21:45.935Z,35.70
2023-01-10T13:22:55.671Z,36.10
2023-01-10T13:24:18.241Z,33.10
2023-01-10T13:25:24.002Z,36.20
2023-01-10T13:26:27.496Z,34.80
2023-01-10T13:27:34.077Z,35.10
2023-01-10T13:28:52.845Z,34.30
2023-01-10T13:29:56.139Z,33.60
2023-01-10T13:31:08.571Z,33.00
2023-01-10T13:32:24.480Z,32.80
2023-01-10T13:33:50.994Z,32.60
2023-01-10T13:34:54.694Z,28.90
2023-01-10T13:36:08.866Z,30.80
2023-01-10T13:37:24.213Z,32.40
2023-01-10T13:38:37.990Z,35.30
2023-01-10T13:39:49.093Z,32.70
2023-01-10T13:41:02.162Z,31.40
2023-01-10T13:42:23.535Z,34.60
2023-01-10T13:43:36.711Z,32.70
2023-01-10T13:45:04.449Z,33.70
2023-01-10T13:46:16.844Z,30.10
2023-01-10T13:47:46.538Z,32.70
2023-01-10T13:48:49.434Z,34.10
2023-01-10T13:49:52.358Z,33.50
2023-01-10T13:51:20.060Z,36.10
2023-01-10T13:52:33.090Z,32.30
2023-01-10T13:53:35.907Z,34.80
2023-01-10T13:54:48.115Z,30.10
2023-01-10T13:55:56.271Z,32.40
2023-01-10T13:56:59.138Z,34.10
2023-01-10T13:58:14.214Z,34.60
2023-01-10T13:59:41.792Z,34.70
2023-01-10T14:01:10.946Z,34.50
2023-01-10T14:02:29.917Z,36.60
2023-01-10T14:03:56.205Z,36.10
2023-01-10T14:05:06.694Z,30.80
2023-01-10T14:06:20.847Z,33.00
2023-01-10T14:07:45.399Z,34.70
2023-01-10T14:08:51.851Z,35.60
2023-01-10T14:10:07.480Z,36.50
2023-01-10T14:11:13.479Z,36.90
2023-01-10T14:12:27.046Z,37.60
2023-01-10T14:13:30.210Z,33.30
2023-01-10T14:14:42.815Z,33.00
2023-01-10T14:15:46.758Z,33.20
2023-01-10T14:16:53.547Z,34.70
2023-01-10T14:17:58.176Z,32.30
2023-01-10T14:19:05.761Z,34.50
2023-01-10T14:20:12.269Z,38.90
2023-01-10T14:21:26.068Z,36.90
2023-01-10T14:22:32.157Z,37.20
2023-01-10T14:23:44.004Z,37.80
2023-01-10T14:24:52.913Z,40.40
2023-01-10T14:25:57.823Z,38.70
2023-01-10T14:27:02.146Z,37.30
2023-01-10T14:28:16.075Z,40.90
2023-01-10T14:29:20.730Z,42.50
2023-01-10T14:30:33.040Z,41.80
2023-01-10T14:31:38.916Z,40.70
2023-01-10T14:32:43.970Z,40.70
2023-01-10T14:33:48.459Z,42.20
2023-01-10T14:34:51.742Z,41.70
2023-01-10T14:36:00.500Z,39.10
2023-01-10T14:37:08.983Z,41.40
2023-01-10T14:38:34.775Z,44.40
2023-01-10T14:39:38.236Z,41.70
2023-01-10T14:40:44.993Z,40.00
2023-01-10T14:41:53.757Z,36.90